Jacksonville, Illinois
Current Conditions -  °F | °C
As of 11:35 PM on Wednesday 26 Nov 2014 (Local Time) from KIJX Reporting Station
Unknown Precip Unknown Precip  
Wind Chill: 20°   Ceiling: 800
Heat Index: 30°   Visibility: 5mi
Dew Point: 27°   Wind: 12mph
Humidity: 88%   Direction: 360°N
Pressure: 30.24"   Gusts: NA
Location:  39.75°N, 90.23°W
Report Text: KIJX 270535Z AUTO 36010KT 5SM UP OVC008 M01/M03 A3024 RMK AO2 T10121030
Loading
Personal Weather Stations






























Interactive Weather Map New forecast layout! Learn more

10-Day Weather Forecast

Advertisements
Track Severe Weather on mobile